Weather observations for the past three days for
Sault Ste Marie, Chippewa County International Airport
| Date | Time (edt) | Wind (kph) | Vis. (km) | Weather | Sky Cond. | Temperature (ºC) | Relative Humidity | Wind Chill (°C) | Heat Index (°C) | Pressure | Precipitation (cm) | ||||||
|---|---|---|---|---|---|---|---|---|---|---|---|---|---|---|---|---|---|
| Air | Dwpt | 6 hour | altimeter (cm) | sea level (mb) | 1 hr | 3 hr | 6 hr | ||||||||||
| Max. | Min. | ||||||||||||||||
| 07 | 16:56 | N 15 | 16.09 | Light Rain | BKN042 OVC049 | 3.9 | 0.6 | 79% | 1 | 75.77 | 1011.0 | ||||||
| 07 | 15:56 | W 17 | 16.09 | Overcast | FEW028 BKN038 OVC050 | 6.7 | -1.7 | 55% | 4 | 75.74 | 1010.4 | ||||||
| 07 | 14:56 | W 11 | 16.09 | Overcast | FEW019 OVC080 | 6.7 | 0.6 | 65% | 5 | 75.77 | 1010.6 | ||||||
| 07 | 13:56 | W 17 | 16.09 | Light Rain | SCT030 BKN039 OVC050 | 3.3 | 1.7 | 6.7 | 1.1 | 89% | -0 | 75.84 | 1011.7 | 0.03 | 0.03 | ||
| 07 | 12:56 | SW 11 | 16.09 | Light Rain | FEW036 BKN046 OVC055 | 6.1 | -3.3 | 51% | 4 | 75.84 | 1011.5 | ||||||
| 07 | 11:56 | W 13 | 16.09 | Overcast | BKN036 OVC070 | 5.6 | -2.8 | 55% | 3 | 75.87 | 1012.1 | ||||||
| 07 | 10:56 | W 15 | 16.09 | Overcast | OVC070 | 5 | -2.8 | 57% | 2 | 75.87 | 1012.1 | ||||||
| 07 | 09:56 | W 13 | 16.09 | Overcast | OVC065 | 3.9 | -1.7 | 67% | 1 | 75.87 | 1012.2 | ||||||
| 07 | 08:56 | W 13 | 16.09 | Overcast | OVC065 | 2.2 | -1.7 | 76% | -1 | 75.87 | 1012.2 | ||||||
| 07 | 07:56 | SW 7 | 16.09 | Overcast | FEW039 OVC065 | 1.1 | -2.8 | 1.1 | -0.6 | 76% | -1 | 75.87 | 1012.1 | ||||
| 07 | 06:56 | SW 7 | 16.09 | Overcast | OVC050 | 0.6 | -3.3 | 75% | -1 | 75.84 | 1011.8 | ||||||
| 07 | 05:56 | S 6 | 16.09 | Overcast | OVC046 | 0 | -2.8 | 82% | 75.84 | 1011.9 | |||||||
| 07 | 04:56 | Calm | 16.09 | Overcast | OVC038 | -0.6 | -2.2 | 89% | 75.87 | 1012.2 | |||||||
| 07 | 03:56 | W 7 | 16.09 | Overcast | OVC050 | 0 | -2.2 | 85% | -2 | 75.9 | 1012.5 | ||||||
| 07 | 02:56 | W 6 | 16.09 | Overcast | OVC050 | 0 | -2.8 | 82% | 75.92 | 1012.8 | |||||||
| 07 | 01:56 | NW 7 | 16.09 | Overcast | OVC041 | 0.6 | -2.2 | 2.8 | 0 | 82% | -1 | 75.95 | 1013.1 | ||||
| 07 | 00:56 | W 6 | 16.09 | Overcast | OVC050 | 0 | -2.8 | 82% | 75.97 | 1013.5 | |||||||
| 06 | 23:56 | W 6 | 16.09 | Overcast | OVC075 | 0 | -2.8 | 82% | 75.97 | 1013.6 | |||||||
| 06 | 22:56 | NW 6 | 16.09 | Overcast | BKN036 OVC050 | 1.1 | -2.8 | 76% | 76 | 1013.8 | |||||||
| 06 | 21:56 | N 9 | 16.09 | Overcast | OVC039 | 1.7 | -3.3 | 70% | -1 | 76 | 1013.7 | ||||||
| 06 | 20:56 | NW 15 | 16.09 | Overcast | BKN043 OVC050 | 2.2 | -3.9 | 64% | -1 | 75.97 | 1013.6 | ||||||
| 06 | 19:56 | N 15 | 16.09 | Overcast | OVC050 | 2.8 | -5 | 4.4 | 2.8 | 57% | -1 | 75.95 | 1013.2 | ||||
| 06 | 18:56 | N 13 | 16.09 | Overcast | OVC065 | 3.9 | -4.4 | 55% | 1 | 75.95 | 1013.1 | ||||||
| 06 | 17:56 | N 17 | 16.09 | Overcast | BKN044 OVC055 | 3.3 | -4.4 | 57% | -0 | 75.92 | 1013.0 | ||||||
| 06 | 16:56 | NW 17 | 16.09 | Overcast | OVC055 | 4.4 | -5.6 | 49% | 1 | 75.92 | 1012.7 | ||||||
| 06 | 15:56 | NW 20 | 16.09 | Overcast | OVC048 | 3.9 | -5.6 | 50% | 0 | 75.92 | 1012.8 | ||||||
| 06 | 14:56 | NW 15 | 16.09 | Overcast | OVC043 | 4.4 | -5 | 51% | 1 | 75.9 | 1012.8 | ||||||
| 06 | 13:56 | W 19 | 16.09 | Overcast | OVC045 | 4.4 | -5 | 4.4 | 0 | 51% | 1 | 75.92 | 1012.7 | ||||
| 06 | 12:56 | W 20 | 16.09 | Overcast | OVC045 | 3.9 | -5.6 | 50% | 0 | 75.92 | 1012.8 | ||||||
| 06 | 11:56 | NW 20 | 16.09 | Overcast | OVC047 | 3.9 | -5.6 | 50% | 0 | 75.9 | 1012.4 | ||||||
| 06 | 10:56 | NW 19 | 16.09 | Overcast | FEW039 OVC050 | 3.3 | -5 | 55% | -1 | 75.87 | 1012.4 | ||||||
| 06 | 09:56 | W 15 | 16.09 | Overcast | OVC055 | 2.8 | -2.8 | 67% | -1 | 75.87 | 1012.2 | ||||||
| 06 | 08:56 | W 13 | 16.09 | Overcast | OVC050 | 1.7 | -2.8 | 72% | -2 | 75.84 | 1012.0 | ||||||
| 06 | 07:56 | W 9 | 16.09 | Overcast | OVC050 | 0 | -2.8 | 0 | -2.2 | 82% | -3 | 75.79 | 1011.4 | ||||
| 06 | 06:56 | SW 6 | 16.09 | Overcast | OVC048 | -0.6 | -2.8 | 85% | 75.77 | 1011.0 | |||||||
| 06 | 05:56 | W 7 | 16.09 | Overcast | OVC048 | -1.1 | -3.3 | 85% | -3 | 75.77 | 1010.9 | ||||||
| 06 | 04:56 | W 7 | 16.09 | Overcast | OVC048 | -1.1 | -3.3 | 85% | -3 | 75.77 | 1011.1 | ||||||
| 06 | 03:56 | SW 7 | 16.09 | Overcast | OVC048 | -1.1 | -3.9 | 82% | -3 | 75.77 | 1011.1 | ||||||
| 06 | 02:56 | W 7 | 16.09 | Fair | CLR | -2.2 | -3.9 | 88% | -5 | 75.77 | 1010.9 | ||||||
| 06 | 01:56 | SW 7 | 16.09 | Fair | CLR | -1.7 | -3.9 | 2.8 | -1.7 | 85% | -4 | 75.77 | 1010.9 | ||||
| 06 | 00:56 | W 6 | 16.09 | Fair | CLR | -1.1 | -3.9 | 82% | 75.77 | 1010.9 | |||||||
| 05 | 23:56 | W 6 | 16.09 | Fair | CLR | -1.1 | -3.9 | 82% | 75.74 | 1010.5 | |||||||
| 05 | 22:56 | NW 11 | 16.09 | Overcast | OVC060 | 0.6 | -3.3 | 75% | -2 | 75.74 | 1010.4 | ||||||
| 05 | 21:56 | N 9 | 16.09 | Overcast | SCT032 OVC050 | 1.7 | -2.8 | 72% | -1 | 75.74 | 1010.2 | ||||||
| 05 | 20:56 | NW 13 | 16.09 | Overcast | OVC044 | 1.7 | -1.7 | 78% | -2 | 75.72 | 1009.9 | ||||||
| 05 | 19:56 | NW 13 | 16.09 | Overcast | BKN029 OVC040 | 2.2 | -1.7 | 5.6 | 1.1 | 76% | -1 | 75.67 | 1009.3 | 0.05 | |||
| 05 | 18:56 | N 19 G 43 | 16.09 | Overcast | BKN036 OVC060 | 2.8 | -2.2 | 70% | -1 | 75.64 | 1009.0 | ||||||
| 05 | 17:56 | N 22 | 16.09 | Overcast | BKN028 BKN035 OVC044 | 3.3 | -1.1 | 73% | -1 | 75.59 | 1008.4 | ||||||
| 05 | 16:56 | N 24 | 16.09 | Light Rain | BKN028 OVC085 | 2.2 | -0.6 | 82% | -3 | 75.57 | 1008.1 | 0.05 | |||||
| 05 | 15:56 | N 19 | 2.82 | Light Snow Fog/Mist | BKN018 OVC026 | 1.7 | 0.6 | 93% | -2 | 75.57 | 1007.9 | 0.05 | |||||
| 05 | 14:56 | N 20 G 31 | 16.09 | Overcast | BKN042 OVC050 | 5 | -1.1 | 65% | 1 | 75.46 | 1006.5 | ||||||
| 05 | 13:56 | N 28 | 16.09 | Overcast | FEW042 BKN055 OVC080 | 5 | -2.2 | 7.2 | 2.8 | 60% | 1 | 75.39 | 1005.6 | ||||
| 05 | 12:56 | N 22 | 16.09 | Overcast | OVC050 | 5 | -1.7 | 62% | 1 | 75.36 | 1005.2 | ||||||
| 05 | 11:56 | N 19 | 16.09 | Light Rain | BKN049 OVC060 | 5 | -2.8 | 57% | 2 | 75.36 | 1005.3 | ||||||
| 05 | 10:56 | NW 24 | 16.09 | A Few Clouds | FEW041 | 7.2 | -3.3 | 48% | 4 | 75.29 | 1004.1 | ||||||
| 05 | 09:56 | NW 28 G 35 | 16.09 | A Few Clouds | FEW034 | 5 | -3.3 | 55% | 1 | 75.23 | 1003.5 | ||||||
| 05 | 08:56 | NW 24 | 16.09 | Fair | CLR | 3.9 | -3.3 | 60% | -0 | 75.23 | 1003.3 | ||||||
| 05 | 07:56 | W 15 | 16.09 | Fair | CLR | 2.8 | -2.2 | 6.7 | 1.1 | 70% | -1 | 75.18 | 1002.9 | ||||
| 05 | 06:56 | NW 13 | 16.09 | Fair | CLR | 1.1 | -2.2 | 79% | -2 | 75.13 | 1002.1 | ||||||
| 05 | 05:56 | W 13 | 16.09 | Fair | CLR | 1.7 | -1.1 | 82% | -2 | 75.06 | 1001.2 | ||||||
| 05 | 04:56 | W 7 | 16.09 | Fair | CLR | 2.2 | -1.7 | 76% | 0 | 75.03 | 1000.7 | ||||||
| 05 | 03:56 | NW 13 | 16.09 | Mostly Cloudy | FEW034 BKN070 | 3.9 | -1.1 | 70% | 1 | 75.03 | 1000.3 | ||||||
| 05 | 02:56 | NW 22 | 16.09 | Overcast | OVC070 | 5.6 | -0.6 | 65% | 2 | 74.96 | 999.7 | ||||||
| 05 | 01:56 | NW 20 | 16.09 | Light Rain | OVC070 | 6.7 | -0.6 | 8.9 | 6.7 | 60% | 3 | 74.96 | 999.2 | ||||
| 05 | 00:56 | NW 17 | 16.09 | Overcast | OVC065 | 6.7 | -0.6 | 60% | 4 | 74.9 | 998.6 | ||||||
| 04 | 23:56 | NW 20 | 16.09 | Overcast | OVC060 | 7.2 | 0.6 | 63% | 4 | 74.88 | 998.4 | ||||||
| 04 | 22:56 | NW 11 | 16.09 | Overcast | OVC060 | 7.2 | 2.8 | 74% | 5 | 74.85 | 998.1 | ||||||
| 04 | 21:56 | NW 9 | 16.09 | Overcast | OVC055 | 7.2 | 3.9 | 80% | 6 | 74.83 | 998.1 | ||||||
| 04 | 20:56 | NW 13 | 16.09 | Overcast | OVC050 | 8.3 | 2.8 | 69% | 6 | 74.8 | 997.5 | ||||||
| 04 | 19:56 | NW 17 | 16.09 | Overcast | OVC085 | 8.9 | 4.4 | 18.9 | 8.9 | 74% | 7 | 74.73 | 996.7 | 0.03 | |||
| 04 | 18:56 | N 19 | 16.09 | Light Rain | OVC070 | 8.9 | 5.6 | 80% | 6 | 74.65 | 995.8 | 0.03 | |||||
| 04 | 17:56 | N 20 | 16.09 | Light Rain | BKN085 | 10 | 5 | 71% | 8 | 74.63 | 995.5 | ||||||
| Date | Time (edt) | Wind (kph) | Vis. (km) | Weather | Sky Cond. | Air | Dwpt | Max. | Min. | Relative Humidity | Wind Chill (°C) | Heat Index (°C) | altimeter (cm) | sea level (mb) | 1 hr | 3 hr | 6 hr |
| 6 hour | |||||||||||||||||
| Temperature (ºC) | Pressure | Precipitation (cm) | |||||||||||||||